Time;durP1;ratioP1;P1;durP2;ratioP2;P2;SDS_P1;SDS_P2;PMS_P1;PMS_P2;Temp;Humidity;BMP_temperature;BMP_pressure;BME280_temperature;BME280_humidity;BME280_pressure;Samples;Min_cycle;Max_cycle;Signal;HPM_P1;HPM_P2
2022/04/18 00:01:56;;;;;;;6.22;2.40;;;;;;;3.12;35.83;100267.56;5050620;28;20033;-57
2022/04/18 00:04:22;;;;;;;3.50;1.40;;;;;;;3.16;35.03;100263.88;5052021;28;20029;-55
2022/04/18 00:06:47;;;;;;;6.82;2.30;;;;;;;3.05;35.66;100268.75;5052497;28;20060;-55
2022/04/18 00:09:13;;;;;;;4.93;2.67;;;;;;;2.82;36.55;100267.94;5033761;28;20455;-57
2022/04/18 00:11:39;;;;;;;5.32;2.67;;;;;;;2.79;36.07;100255.72;5032123;28;20080;-55
2022/04/18 00:14:05;;;;;;;4.32;1.88;;;;;;;2.85;36.03;100273.09;5032531;28;20025;-59
2022/04/18 00:16:30;;;;;;;3.25;1.60;;;;;;;2.81;36.70;100264.44;5032623;28;20025;-56
2022/04/18 00:18:56;;;;;;;3.80;1.55;;;;;;;2.92;35.96;100271.06;5031821;28;20488;-57
2022/04/18 00:21:21;;;;;;;3.60;1.73;;;;;;;2.78;36.51;100269.00;5031952;28;20029;-55
2022/04/18 00:23:47;;;;;;;5.85;2.05;;;;;;;2.71;36.30;100265.72;5031504;28;20511;-53
2022/04/18 00:26:13;;;;;;;4.43;2.00;;;;;;;2.60;36.83;100283.81;5031642;28;20438;-56
2022/04/18 00:28:39;;;;;;;10.23;2.03;;;;;;;2.68;36.62;100277.31;5031472;28;20211;-57
2022/04/18 00:31:04;;;;;;;4.40;1.80;;;;;;;2.73;36.31;100282.38;5032112;28;20409;-57
2022/04/18 00:33:30;;;;;;;5.30;1.90;;;;;;;2.60;36.88;100268.81;5031803;28;20465;-56
2022/04/18 00:35:56;;;;;;;3.13;1.83;;;;;;;2.63;37.15;100270.47;5030615;28;20030;-54
2022/04/18 00:38:22;;;;;;;7.45;1.90;;;;;;;2.56;36.68;100256.63;5031574;28;20455;-59
2022/04/18 00:40:49;;;;;;;6.43;2.45;;;;;;;2.54;36.89;100272.59;5031428;28;20045;-54
2022/04/18 00:43:14;;;;;;;3.33;1.73;;;;;;;2.47;37.68;100278.16;5031598;28;20064;-56
2022/04/18 00:45:40;;;;;;;3.58;1.70;;;;;;;2.56;36.95;100283.94;5030614;28;20579;-54
2022/04/18 00:48:06;;;;;;;5.35;2.00;;;;;;;2.66;36.99;100268.59;5031269;28;20186;-56
2022/04/18 00:50:34;;;;;;;4.90;2.25;;;;;;;2.66;36.91;100260.66;5030160;28;20042;-55
2022/04/18 00:53:02;;;;;;;4.93;1.75;;;;;;;2.67;36.89;100272.94;5030573;28;20154;-56
2022/04/18 00:55:28;;;;;;;4.63;2.22;;;;;;;2.75;36.99;100279.69;5031349;28;20029;-55
2022/04/18 00:57:55;;;;;;;4.10;2.20;;;;;;;2.63;37.06;100276.59;5031393;28;20407;-54
2022/04/18 01:00:21;;;;;;;7.35;2.10;;;;;;;2.53;37.69;100277.91;5049230;28;20029;-53
2022/04/18 01:02:48;;;;;;;3.97;1.98;;;;;;;2.35;37.95;100271.59;5050916;28;20029;-57
2022/04/18 01:05:13;;;;;;;4.43;1.50;;;;;;;2.50;37.61;100272.75;5051451;28;20087;-55
2022/04/18 01:07:40;;;;;;;2.70;1.50;;;;;;;2.52;37.69;100289.41;5051101;28;20033;-54
2022/04/18 01:10:07;;;;;;;3.78;2.00;;;;;;;2.42;37.92;100271.28;5050880;28;20025;-55
2022/04/18 01:12:33;;;;;;;4.55;1.90;;;;;;;2.50;37.48;100272.75;5051098;28;20033;-53
2022/04/18 01:14:58;;;;;;;4.60;1.80;;;;;;;2.49;37.78;100269.25;5050668;28;20043;-56
2022/04/18 01:17:25;;;;;;;4.60;2.13;;;;;;;2.48;38.31;100269.31;5050160;28;20025;-55
2022/04/18 01:19:50;;;;;;;3.40;1.90;;;;;;;2.42;37.60;100268.66;5050631;28;20033;-59
2022/04/18 01:22:18;;;;;;;5.13;1.88;;;;;;;2.42;37.80;100263.34;5051112;28;20483;-56
2022/04/18 01:30:14;;;;;;;3.67;1.98;;;;;;;2.36;38.42;100257.44;5050792;28;20414;-55
2022/04/18 01:32:39;;;;;;;5.13;2.15;;;;;;;2.14;38.70;100253.84;5051128;28;20095;-56
2022/04/18 01:35:05;;;;;;;2.63;1.70;;;;;;;2.34;38.43;100260.13;5050411;28;20462;-59
2022/04/18 01:37:30;;;;;;;5.30;1.60;;;;;;;2.26;38.40;100259.59;5050361;28;20655;-57
2022/04/18 01:39:56;;;;;;;2.60;1.42;;;;;;;2.24;38.83;100257.00;5050783;28;20037;-58
2022/04/18 01:42:22;;;;;;;3.00;1.50;;;;;;;2.20;38.89;100254.56;5050541;28;20039;-59
2022/04/18 01:44:47;;;;;;;5.40;1.50;;;;;;;2.31;38.22;100247.06;5050763;28;20025;-58
2022/04/18 01:47:13;;;;;;;3.63;1.73;;;;;;;2.23;38.82;100246.50;5049184;28;20033;-54
2022/04/18 01:49:38;;;;;;;3.90;1.55;;;;;;;2.24;38.98;100251.72;5050920;28;20117;-58
2022/04/18 01:52:04;;;;;;;3.22;1.15;;;;;;;2.43;38.06;100253.63;5050493;28;20521;-56
2022/04/18 01:54:29;;;;;;;5.13;1.17;;;;;;;2.20;38.91;100263.31;5050234;28;20044;-56
2022/04/18 01:56:55;;;;;;;5.25;1.60;;;;;;;2.17;38.63;100263.44;5030445;28;20041;-53
2022/04/18 01:59:21;;;;;;;2.53;1.17;;;;;;;2.09;38.48;100263.72;5029331;28;20311;-57
2022/04/18 02:01:46;;;;;;;5.13;1.20;;;;;;;2.19;38.92;100263.41;5030871;28;20028;-59
2022/04/18 02:04:12;;;;;;;3.17;1.38;;;;;;;2.08;38.38;100266.44;5030505;28;20385;-56
2022/04/18 02:06:37;;;;;;;2.15;1.25;;;;;;;1.98;38.84;100266.78;5030436;28;20104;-55
2022/04/18 02:09:03;;;;;;;3.15;1.10;;;;;;;2.20;38.31;100270.41;5030494;28;20041;-55
2022/04/18 02:11:28;;;;;;;1.35;1.10;;;;;;;2.00;38.99;100253.53;5030473;28;20030;-53
2022/04/18 02:13:55;;;;;;;2.38;1.15;;;;;;;2.02;39.02;100254.34;5030319;28;20508;-55
2022/04/18 02:16:21;;;;;;;3.83;1.33;;;;;;;1.85;39.48;100252.34;5030228;28;20032;-57
2022/04/18 02:18:46;;;;;;;6.22;1.25;;;;;;;1.64;39.16;100222.31;5030515;28;20029;-53
2022/04/18 02:21:12;;;;;;;3.00;1.42;;;;;;;2.05;38.66;100266.53;5030929;28;20036;-55
2022/04/18 02:23:39;;;;;;;2.95;1.13;;;;;;;2.11;38.94;100267.19;5030306;28;20451;-56
2022/04/18 02:26:04;;;;;;;2.33;1.30;;;;;;;1.98;39.07;100256.22;5029933;28;20029;-56
2022/04/18 02:28:31;;;;;;;3.83;1.50;;;;;;;2.03;38.88;100268.38;5032495;28;20052;-56
2022/04/18 02:30:57;;;;;;;4.18;1.60;;;;;;;1.83;39.84;100262.94;5033314;28;20488;-52
2022/04/18 02:33:23;;;;;;;4.47;1.60;;;;;;;1.97;39.27;100258.94;5031754;28;20034;-57
2022/04/18 02:35:49;;;;;;;4.88;1.48;;;;;;;1.86;40.12;100261.97;5033688;28;20033;-57
2022/04/18 02:38:14;;;;;;;7.38;1.40;;;;;;;1.76;40.12;100264.09;5034237;28;20057;-50
2022/04/18 02:40:40;;;;;;;2.63;1.80;;;;;;;1.94;39.63;100261.69;5034022;28;20037;-56
2022/04/18 02:43:06;;;;;;;3.80;1.60;;;;;;;1.83;40.12;100260.31;5033641;28;20044;-58
2022/04/18 02:45:32;;;;;;;4.60;1.90;;;;;;;1.86;39.82;100268.09;5033854;28;20382;-57
2022/04/18 02:47:58;;;;;;;4.80;1.83;;;;;;;1.57;40.19;100221.69;5033635;28;20053;-58
2022/04/18 02:50:25;;;;;;;5.18;1.63;;;;;;;1.75;40.35;100269.44;5033371;28;20108;-55
2022/04/18 02:52:51;;;;;;;3.83;1.73;;;;;;;1.77;40.97;100264.94;5033720;28;20060;-54
2022/04/18 02:55:16;;;;;;;3.75;1.52;;;;;;;1.75;40.87;100259.75;5033448;28;20457;-53
2022/04/18 02:57:42;;;;;;;3.38;1.80;;;;;;;1.85;40.64;100258.47;5033690;28;20467;-58
2022/04/18 03:00:09;;;;;;;4.40;1.55;;;;;;;1.91;40.60;100267.06;5033723;28;20040;-56
2022/04/18 03:02:35;;;;;;;5.22;1.80;;;;;;;2.03;40.08;100258.69;5033312;28;20033;-57
2022/04/18 03:05:00;;;;;;;6.95;1.98;;;;;;;2.12;40.35;100252.22;5033264;28;20108;-55
2022/04/18 03:07:26;;;;;;;4.95;1.85;;;;;;;2.26;40.18;100255.16;5033362;28;20534;-57
2022/04/18 03:09:51;;;;;;;7.25;2.10;;;;;;;2.23;40.21;100251.78;5033501;28;20021;-56
2022/04/18 03:12:17;;;;;;;3.92;1.75;;;;;;;2.33;40.15;100258.41;5033115;28;20112;-55
2022/04/18 03:14:43;;;;;;;4.57;2.28;;;;;;;2.34;40.57;100254.84;5033365;28;20084;-56
2022/04/18 03:17:09;;;;;;;7.25;2.30;;;;;;;2.28;40.30;100255.09;5033190;28;20230;-54
2022/04/18 03:19:35;;;;;;;6.80;2.17;;;;;;;2.21;40.64;100243.06;5033167;28;20493;-58
2022/04/18 03:22:00;;;;;;;6.45;1.90;;;;;;;2.46;40.11;100250.88;5032823;28;20034;-54
2022/04/18 03:24:26;;;;;;;4.28;2.17;;;;;;;2.47;40.08;100251.75;5033064;28;20029;-56
2022/04/18 03:26:51;;;;;;;5.38;2.25;;;;;;;2.52;40.54;100247.97;5033236;28;20072;-56
2022/04/18 03:29:17;;;;;;;8.82;2.25;;;;;;;2.56;40.05;100251.34;5032839;28;20535;-53
2022/04/18 03:31:43;;;;;;;5.38;2.95;;;;;;;2.73;40.21;100248.00;5033190;28;20021;-58
2022/04/18 03:34:08;;;;;;;5.45;2.45;;;;;;;3.06;39.53;100254.59;5033019;28;20041;-56
2022/04/18 03:42:03;;;;;;;6.20;2.50;;;;;;;7.00;32.40;100234.00;5032848;28;20060;-53
2022/04/18 03:44:28;;;;;;;5.28;2.40;;;;;;;8.45;30.13;100240.19;5044807;28;20465;-49
2022/04/18 03:46:54;;;;;;;7.05;2.22;;;;;;;9.76;28.41;100247.47;5052607;28;20083;-54
2022/04/18 03:49:20;;;;;;;3.78;2.08;;;;;;;10.80;26.39;100193.63;5052520;28;20409;-52
2022/04/18 03:51:45;;;;;;;5.13;2.42;;;;;;;12.04;24.95;100237.69;5052630;28;20033;-51
2022/04/18 03:54:11;;;;;;;8.23;2.40;;;;;;;12.84;23.95;100227.63;5051157;28;20132;-54
2022/04/18 03:56:37;;;;;;;11.40;2.35;;;;;;;13.32;23.08;100199.41;5051512;28;20027;-59
2022/04/18 03:59:02;;;;;;;3.05;2.10;;;;;;;14.26;22.39;100237.06;5052388;28;20079;-55
2022/04/18 04:01:27;;;;;;;6.85;2.45;;;;;;;14.59;21.14;100189.19;5052147;28;20041;-57
2022/04/18 04:03:53;;;;;;;5.07;2.35;;;;;;;15.49;20.75;100229.44;5052173;28;20032;-55
2022/04/18 04:06:19;;;;;;;6.80;2.40;;;;;;;16.07;19.93;100228.41;5052835;28;20125;-49
2022/04/18 04:08:44;;;;;;;5.72;2.50;;;;;;;16.57;19.38;100218.16;5052291;28;20497;-55
2022/04/18 04:11:11;;;;;;;5.15;2.60;;;;;;;17.13;18.76;100225.25;5052006;28;20051;-56
2022/04/18 04:13:36;;;;;;;5.88;2.92;;;;;;;17.63;18.15;100219.19;5050957;28;20362;-55
2022/04/18 04:16:02;;;;;;;9.20;2.80;;;;;;;17.99;17.70;100228.13;5052012;28;20092;-54
2022/04/18 04:18:27;;;;;;;9.25;2.97;;;;;;;18.56;17.25;100237.50;5051980;28;20120;-54
2022/04/18 04:20:53;;;;;;;10.73;4.10;;;;;;;19.28;16.61;100231.47;5052001;28;20453;-56
2022/04/18 04:23:18;;;;;;;11.93;3.40;;;;;;;19.75;16.19;100220.84;5052288;28;20048;-56
2022/04/18 04:25:44;;;;;;;8.13;3.65;;;;;;;20.04;15.80;100220.28;5050855;28;20032;-56
2022/04/18 04:28:11;;;;;;;4.65;3.30;;;;;;;20.68;15.43;100231.16;5052060;28;20028;-56
2022/04/18 04:30:36;;;;;;;8.32;3.85;;;;;;;21.01;15.29;100218.19;5051446;28;20043;-55
2022/04/18 04:33:02;;;;;;;12.15;3.88;;;;;;;21.58;14.66;100215.94;5050754;28;20120;-56
2022/04/18 04:35:27;;;;;;;10.85;3.60;;;;;;;22.00;14.12;100215.50;5051768;28;20121;-54
2022/04/18 04:37:53;;;;;;;11.27;3.83;;;;;;;22.35;14.03;100188.44;5051499;28;20053;-57
2022/04/18 04:40:19;;;;;;;17.38;4.20;;;;;;;22.97;13.68;100218.91;5051963;28;20036;-55
2022/04/18 04:42:44;;;;;;;9.57;3.78;;;;;;;23.19;13.58;100207.97;5051281;28;20033;-60
2022/04/18 04:45:10;;;;;;;11.45;4.13;;;;;;;23.58;13.23;100184.72;5043668;28;20556;-60
2022/04/18 04:47:35;;;;;;;10.15;4.00;;;;;;;24.13;12.54;100194.06;5031878;28;20091;-58
2022/04/18 04:50:01;;;;;;;10.13;3.70;;;;;;;24.58;12.96;100202.63;5031535;28;20033;-60
2022/04/18 04:52:26;;;;;;;13.65;3.85;;;;;;;25.14;12.09;100200.59;5030439;28;20034;-63
2022/04/18 04:54:52;;;;;;;9.10;3.45;;;;;;;25.58;12.06;100195.53;5031951;28;20430;-59
2022/04/18 04:57:17;;;;;;;14.88;4.10;;;;;;;25.44;11.96;100196.56;5031973;28;20079;-55
2022/04/18 04:59:43;;;;;;;7.32;4.03;;;;;;;25.60;11.65;100207.13;5048302;28;20029;-58
2022/04/18 05:02:08;;;;;;;11.18;3.72;;;;;;;25.64;12.00;100197.41;5032288;28;20485;-58
2022/04/18 05:04:34;;;;;;;9.82;3.70;;;;;;;26.39;11.15;100206.22;5033450;28;20032;-53
2022/04/18 05:07:00;;;;;;;7.10;3.50;;;;;;;27.35;10.67;100203.44;5031181;28;20470;-58
2022/04/18 05:09:25;;;;;;;8.05;3.60;;;;;;;27.77;10.33;100186.31;5038935;28;20118;-57
2022/04/18 05:11:52;;;;;;;14.60;3.55;;;;;;;27.76;10.21;100200.31;5033333;28;20047;-56
2022/04/18 05:14:18;;;;;;;9.68;3.38;;;;;;;27.37;10.75;100205.97;5031286;28;20381;-58
2022/04/18 05:16:44;;;;;;;8.93;3.80;;;;;;;27.84;10.17;100191.72;5036796;28;20033;-60
2022/04/18 05:19:10;;;;;;;6.78;3.70;;;;;;;28.62;9.84;100197.50;5035036;28;20102;-52
2022/04/18 05:21:35;;;;;;;7.13;3.55;;;;;;;29.07;9.37;100204.47;5034464;28;20024;-55
2022/04/18 05:24:01;;;;;;;7.40;3.53;;;;;;;29.18;9.56;100202.78;5050441;28;20465;-57
2022/04/18 05:26:27;;;;;;;9.50;3.72;;;;;;;27.91;9.75;100194.41;5050012;28;20124;-57
2022/04/18 05:28:52;;;;;;;9.25;3.95;;;;;;;28.15;9.60;100200.91;5033106;28;20374;-60
2022/04/18 05:31:19;;;;;;;10.02;3.83;;;;;;;28.82;9.75;100206.56;5031217;28;20025;-59
2022/04/18 05:33:45;;;;;;;7.18;3.22;;;;;;;28.63;9.08;100201.94;5030832;28;20080;-60
2022/04/18 05:36:11;;;;;;;7.80;3.30;;;;;;;28.79;9.39;100199.59;5044278;28;20037;-58
2022/04/18 05:38:37;;;;;;;7.47;3.08;;;;;;;29.01;9.07;100194.41;5029298;28;20072;-57
2022/04/18 05:41:02;;;;;;;4.45;3.03;;;;;;;29.09;9.20;100209.75;5040675;28;20029;-58
2022/04/18 05:43:28;;;;;;;8.98;3.30;;;;;;;28.84;9.06;100212.69;5050807;28;20060;-60
2022/04/18 05:45:54;;;;;;;10.98;3.13;;;;;;;28.69;9.17;100188.31;5050705;28;20055;-59
2022/04/18 05:48:20;;;;;;;5.78;3.40;;;;;;;29.71;8.85;100200.16;5050575;28;20029;-59
2022/04/18 05:50:46;;;;;;;6.25;3.70;;;;;;;30.73;8.20;100191.44;5048962;28;20048;-58
2022/04/18 05:53:12;;;;;;;7.32;3.10;;;;;;;31.52;7.92;100199.88;5049384;28;20065;-58
2022/04/18 05:55:38;;;;;;;7.57;3.03;;;;;;;30.28;8.09;100219.84;5049135;28;20349;-58
2022/04/18 05:58:04;;;;;;;5.15;2.72;;;;;;;29.54;8.11;100200.06;5047850;28;20033;-58
2022/04/18 06:00:32;;;;;;;5.75;3.35;;;;;;;29.45;8.72;100198.75;5049127;28;20361;-55
2022/04/18 06:02:59;;;;;;;7.25;3.72;;;;;;;30.82;7.95;100191.03;5050514;28;20423;-59
2022/04/18 06:05:24;;;;;;;4.95;2.85;;;;;;;32.24;7.71;100191.72;5053377;28;20028;-59
2022/04/18 06:07:51;;;;;;;4.38;2.80;;;;;;;32.40;6.96;100186.34;5054265;28;20025;-60
2022/04/18 06:10:17;;;;;;;5.65;3.22;;;;;;;32.99;6.63;100204.13;5054534;28;20028;-59
2022/04/18 06:12:42;;;;;;;9.65;2.75;;;;;;;33.51;6.12;100205.31;5052937;28;20094;-60
2022/04/18 06:15:08;;;;;;;5.30;3.08;;;;;;;32.97;6.33;100203.53;5054358;28;20115;-61
2022/04/18 06:17:34;;;;;;;5.97;2.80;;;;;;;32.53;6.92;100207.25;5054557;28;20032;-60
2022/04/18 06:20:01;;;;;;;4.07;2.75;;;;;;;32.27;7.24;100206.94;5054144;28;20107;-60
2022/04/18 06:22:26;;;;;;;5.28;2.50;;;;;;;32.06;6.97;100198.41;5054027;28;20477;-57
2022/04/18 06:24:52;;;;;;;3.88;2.35;;;;;;;32.56;6.78;100212.31;5054454;28;20086;-56
2022/04/18 06:27:17;;;;;;;4.40;2.70;;;;;;;32.19;6.62;100191.63;5041813;28;20025;-63
2022/04/18 06:29:43;;;;;;;5.30;2.63;;;;;;;32.05;6.62;100192.03;5033802;28;20112;-63
2022/04/18 06:32:09;;;;;;;3.38;2.05;;;;;;;32.88;6.41;100181.84;5043675;28;20025;-67
2022/04/18 06:34:34;;;;;;;5.57;3.00;;;;;;;32.80;6.42;100179.53;5053138;28;20040;-67
2022/04/18 06:37:00;;;;;;;7.88;2.38;;;;;;;33.56;6.36;100183.16;5053774;28;20072;-67
2022/04/18 06:39:25;;;;;;;3.90;2.22;;;;;;;34.22;6.16;100176.22;5052109;28;20047;-66
2022/04/18 06:41:51;;;;;;;3.25;2.40;;;;;;;34.62;5.65;100181.31;5035838;28;20055;-65
2022/04/18 06:44:16;;;;;;;3.60;2.10;;;;;;;33.69;5.60;100175.44;5052680;28;20040;-65
2022/04/18 06:46:42;;;;;;;4.70;2.17;;;;;;;32.76;6.18;100183.94;5035224;28;20037;-64
2022/04/18 06:49:07;;;;;;;3.67;2.05;;;;;;;33.27;6.27;100182.69;5033680;28;20025;-62
2022/04/18 06:51:33;;;;;;;6.22;2.50;;;;;;;33.33;6.38;100196.31;5034042;28;20025;-63
2022/04/18 06:53:58;;;;;;;6.45;2.45;;;;;;;33.44;6.13;100183.38;5033733;28;20518;-65
2022/04/18 06:59:08;;;;;;;4.85;2.60;;;;;;;35.67;5.17;100180.97;5031822;28;20021;-63
2022/04/18 07:01:34;;;;;;;4.90;2.70;;;;;;;35.67;5.19;100192.13;5035062;28;20035;-64
2022/04/18 07:03:59;;;;;;;7.75;2.35;;;;;;;36.04;4.88;100201.19;5038294;28;20025;-64
2022/04/18 07:06:25;;;;;;;6.93;2.60;;;;;;;35.90;4.83;100187.81;5040386;28;20039;-64
2022/04/18 07:08:50;;;;;;;3.58;2.10;;;;;;;35.12;5.03;100195.56;5049947;28;20029;-63
2022/04/18 07:11:16;;;;;;;3.45;2.40;;;;;;;35.51;5.14;100194.13;5053166;28;20086;-64
2022/04/18 07:13:42;;;;;;;5.65;2.38;;;;;;;35.98;4.78;100182.81;5052643;28;20116;-63
2022/04/18 07:16:07;;;;;;;2.35;2.15;;;;;;;36.26;4.42;100200.78;5041410;28;20033;-63
2022/04/18 07:18:34;;;;;;;5.25;1.85;;;;;;;34.80;4.89;100193.03;5032653;28;20120;-63
2022/04/18 07:20:59;;;;;;;2.53;1.85;;;;;;;33.78;5.63;100157.19;5032798;28;20071;-65
2022/04/18 07:23:25;;;;;;;2.05;1.80;;;;;;;34.12;5.40;100181.75;5034957;28;20025;-65
2022/04/18 07:25:51;;;;;;;5.28;2.03;;;;;;;33.10;5.72;100182.84;5032882;28;20099;-62
2022/04/18 07:28:16;;;;;;;4.78;1.75;;;;;;;31.46;6.75;100176.84;5050946;28;20048;-61
2022/04/18 07:30:42;;;;;;;3.28;2.05;;;;;;;31.08;6.99;100187.59;5046991;28;20030;-61
2022/04/18 07:33:07;;;;;;;4.10;1.80;;;;;;;30.47;6.69;100168.00;5033452;28;20033;-62
2022/04/18 07:35:34;;;;;;;4.57;1.60;;;;;;;29.90;7.15;100164.97;5033103;28;20431;-60
2022/04/18 07:40:45;;;;;;;3.75;1.98;;;;;;;29.02;7.60;100193.31;5032966;28;20436;-63
2022/04/18 07:43:10;;;;;;;2.58;1.40;;;;;;;28.85;7.96;100181.28;5032708;28;20045;-61
2022/04/18 07:45:39;;;;;;;4.00;1.95;;;;;;;27.71;8.68;100173.47;5048784;28;20036;-63
2022/04/18 07:48:07;;;;;;;2.80;1.67;;;;;;;27.21;9.08;100168.88;5033011;28;20112;-63
2022/04/18 07:53:18;;;;;;;4.28;2.20;;;;;;;28.82;8.23;100166.09;5032752;28;20034;-64
2022/04/18 07:55:43;;;;;;;4.75;1.80;;;;;;;28.70;8.27;100173.44;5032698;28;20070;-64
2022/04/18 07:58:09;;;;;;;5.30;2.22;;;;;;;28.85;7.98;100162.00;5032642;28;20382;-63
2022/04/18 08:00:35;;;;;;;3.05;1.90;;;;;;;29.13;8.34;100154.97;5037648;28;20057;-62
2022/04/18 08:03:01;;;;;;;4.45;1.90;;;;;;;29.40;7.89;100154.47;5032935;28;20121;-66
2022/04/18 08:05:26;;;;;;;2.95;1.85;;;;;;;29.30;8.08;100158.69;5038377;28;20038;-65
2022/04/18 08:07:52;;;;;;;4.28;2.00;;;;;;;27.93;8.46;100164.75;5051603;28;20440;-64
2022/04/18 08:10:17;;;;;;;3.33;1.67;;;;;;;25.24;9.96;100142.63;5052018;28;20037;-62
2022/04/18 08:12:43;;;;;;;11.05;1.73;;;;;;;22.95;11.19;100144.56;5052127;28;20055;-63
2022/04/18 08:15:08;;;;;;;4.15;1.60;;;;;;;20.90;12.78;100170.47;5052013;28;20025;-62
2022/04/18 08:17:34;;;;;;;5.63;1.77;;;;;;;19.45;14.14;100160.88;5051696;28;20067;-63
2022/04/18 08:20:00;;;;;;;3.15;1.77;;;;;;;17.51;15.97;100166.31;5052478;28;20342;-68
2022/04/18 08:22:25;;;;;;;4.28;1.65;;;;;;;16.86;17.17;100152.16;5052172;28;20139;-63
2022/04/18 08:24:51;;;;;;;3.95;1.70;;;;;;;15.45;19.11;100155.19;5051474;28;20407;-65
2022/04/18 08:27:16;;;;;;;2.88;1.63;;;;;;;15.13;18.93;100146.47;5051782;28;20036;-69
2022/04/18 08:29:42;;;;;;;3.10;1.52;;;;;;;14.99;19.63;100147.78;5050497;28;20461;-70
2022/04/18 08:32:08;;;;;;;2.40;1.88;;;;;;;14.84;19.44;100151.91;5051762;28;20032;-70
2022/04/18 08:34:34;;;;;;;4.63;2.10;;;;;;;14.58;20.04;100158.69;5051991;28;20040;-65
2022/04/18 08:36:59;;;;;;;4.93;2.15;;;;;;;14.00;20.86;100146.03;5051134;28;20075;-64
2022/04/18 08:39:26;;;;;;;3.92;1.90;;;;;;;13.89;20.64;100144.31;5051433;28;20414;-64
2022/04/18 08:41:58;;;;;;;3.40;1.88;;;;;;;13.54;21.25;100148.28;5051696;28;20041;-66
2022/04/18 08:44:26;;;;;;;5.78;2.15;;;;;;;13.39;21.53;100147.75;5051410;28;20037;-65
2022/04/18 08:46:52;;;;;;;3.60;1.80;;;;;;;13.58;21.97;100138.94;5042777;28;20501;-63
2022/04/18 08:54:49;;;;;;;4.03;1.75;;;;;;;13.01;21.68;100102.56;5035191;28;20137;-63
2022/04/18 08:57:14;;;;;;;3.47;1.70;;;;;;;13.45;21.98;100140.03;5031169;28;20029;-67
2022/04/18 08:59:40;;;;;;;5.88;1.75;;;;;;;13.85;21.14;100138.34;5031346;28;20078;-63
2022/04/18 09:02:06;;;;;;;1.65;1.50;;;;;;;13.67;20.85;100127.38;5018100;28;20021;-64
2022/04/18 09:04:32;;;;;;;4.32;1.88;;;;;;;13.64;20.82;100143.81;5031570;28;20033;-67
2022/04/18 09:07:13;;;;;;;3.47;1.98;;;;;;;13.34;21.41;100124.81;5049524;28;20040;-69
2022/04/18 09:09:39;;;;;;;3.70;2.10;;;;;;;13.17;22.05;100117.38;5032209;28;20034;-68
2022/04/18 09:12:27;;;;;;;2.92;1.80;;;;;;;13.60;21.23;100134.28;5049727;28;20033;-65
2022/04/18 09:14:52;;;;;;;2.72;1.80;;;;;;;13.35;21.29;100106.81;5050760;28;20025;-70
2022/04/18 09:17:36;;;;;;;4.15;1.75;;;;;;;13.41;21.02;100116.19;5041337;28;20135;-65
2022/04/18 09:20:10;;;;;;;2.97;1.40;;;;;;;13.15;21.54;100127.41;5031375;28;20028;-69
2022/04/18 09:22:47;;;;;;;3.15;1.88;;;;;;;13.12;21.38;100111.53;5031519;28;20026;-65
2022/04/18 09:25:22;;;;;;;2.95;1.75;;;;;;;13.01;21.78;100110.63;5030537;28;20152;-60
2022/04/18 09:27:54;;;;;;;2.50;1.58;;;;;;;12.61;22.13;100101.47;5031066;28;20059;-65
2022/04/18 09:30:20;;;;;;;2.30;1.55;;;;;;;12.51;22.32;100113.97;5034987;28;20037;-67
2022/04/18 09:33:03;;;;;;;3.53;1.60;;;;;;;12.52;22.04;100071.84;5039121;28;20121;-72
2022/04/18 09:35:30;;;;;;;4.28;1.90;;;;;;;12.67;22.27;100091.19;5030983;28;20508;-64
2022/04/18 09:38:06;;;;;;;2.05;1.02;;;;;;;13.14;21.30;100093.44;5034636;28;20045;-64
2022/04/18 09:40:38;;;;;;;4.35;1.90;;;;;;;12.57;22.32;100089.28;5049708;28;20068;-64
2022/04/18 09:43:03;;;;;;;3.72;1.55;;;;;;;12.40;22.49;100088.03;5049417;28;20025;-65
2022/04/18 09:45:29;;;;;;;5.72;1.73;;;;;;;12.58;22.23;100096.34;5050693;28;20106;-67
2022/04/18 09:48:02;;;;;;;3.22;1.58;;;;;;;12.61;22.67;100103.31;5039010;28;20125;-63
2022/04/18 09:53:24;;;;;;;5.60;1.60;;;;;;;12.48;23.09;100085.53;5050369;28;20029;-66
2022/04/18 09:55:55;;;;;;;3.13;1.50;;;;;;;12.52;23.10;100086.13;5041163;28;20110;-63
2022/04/18 09:58:21;;;;;;;7.15;1.60;;;;;;;12.61;22.52;100084.50;5045479;28;20376;-63
2022/04/18 10:00:48;;;;;;;4.05;1.38;;;;;;;12.45;22.41;100068.84;5050448;28;20029;-65
2022/04/18 10:03:14;;;;;;;7.95;1.55;;;;;;;12.45;22.40;100076.91;5047269;28;20432;-62
2022/04/18 10:05:40;;;;;;;2.53;1.50;;;;;;;12.24;22.48;100080.41;5030254;28;20041;-66
2022/04/18 10:08:05;;;;;;;5.20;1.52;;;;;;;11.97;22.98;100037.91;5029842;28;20069;-64
2022/04/18 10:10:36;;;;;;;4.38;1.60;;;;;;;12.09;23.50;100087.03;5045887;28;20438;-67
2022/04/18 10:13:06;;;;;;;3.22;1.52;;;;;;;12.11;23.28;100077.91;5033250;28;20048;-64
2022/04/18 10:15:33;;;;;;;4.50;1.33;;;;;;;12.09;23.04;100065.59;5037492;28;20513;-65
2022/04/18 10:18:02;;;;;;;1.80;1.40;;;;;;;11.80;24.22;100063.44;5023846;28;20048;-64
2022/04/18 10:20:39;;;;;;;3.72;1.60;;;;;;;11.82;23.95;100059.69;5038292;28;20017;-63
2022/04/18 10:23:27;;;;;;;2.45;1.63;;;;;;;11.97;24.08;100054.88;5037748;28;20543;-64
2022/04/18 10:26:11;;;;;;;4.85;1.70;;;;;;;12.21;23.68;100059.19;5036677;28;20035;-62
2022/04/18 10:28:41;;;;;;;5.13;1.60;;;;;;;12.25;23.33;100066.00;5038238;28;20374;-61
2022/04/18 10:31:15;;;;;;;5.80;1.35;;;;;;;12.34;22.77;100048.28;5037727;28;20064;-62
2022/04/18 10:33:42;;;;;;;1.63;1.10;;;;;;;12.49;23.20;100068.44;5040069;28;20210;-65
2022/04/18 10:36:08;;;;;;;5.20;1.92;;;;;;;12.58;21.91;100057.91;5037975;28;20021;-62
2022/04/18 10:38:44;;;;;;;4.68;1.58;;;;;;;12.21;22.58;100053.84;5038129;28;20041;-63
2022/04/18 10:41:35;;;;;;;3.25;1.58;;;;;;;12.40;22.78;100066.53;5038458;28;20950;-64
2022/04/18 10:44:08;;;;;;;4.25;1.15;;;;;;;12.21;22.67;100067.25;5039791;28;20029;-63
2022/04/18 10:47:01;;;;;;;2.33;1.38;;;;;;;12.20;22.71;100066.38;5028373;28;20140;-64
2022/04/18 10:49:31;;;;;;;4.00;1.23;;;;;;;11.80;22.51;100034.78;5049799;28;20041;-61
2022/04/18 10:52:05;;;;;;;1.98;1.05;;;;;;;12.00;22.84;100045.69;5053130;28;20029;-63
2022/04/18 10:54:31;;;;;;;5.43;1.30;;;;;;;11.89;23.77;100041.22;5053095;28;20086;-63
2022/04/18 10:56:58;;;;;;;5.90;1.60;;;;;;;11.91;23.25;100026.72;5053591;28;20145;-64
2022/04/18 10:59:33;;;;;;;4.25;1.27;;;;;;;12.16;23.18;100037.22;5053653;28;20055;-64
2022/04/18 11:01:59;;;;;;;;;;;;;;;12.42;22.59;100039.53;5053159;28;20037;-64
2022/04/18 11:04:26;;;;;;;3.78;1.40;;;;;;;12.26;23.02;100034.63;5035117;28;19913;-63
2022/04/18 11:06:58;;;;;;;2.63;1.30;;;;;;;12.15;23.16;100022.13;5031045;28;20433;-61
2022/04/18 11:09:25;;;;;;;2.10;1.50;;;;;;;12.40;22.00;100047.75;5032827;28;20025;-64
2022/04/18 11:12:04;;;;;;;5.00;1.30;;;;;;;12.26;22.31;100040.00;5032542;28;20095;-63
2022/04/18 11:14:54;;;;;;;2.47;1.30;;;;;;;12.11;22.36;100039.47;5043918;28;20043;-63
2022/04/18 11:17:31;;;;;;;4.45;1.50;;;;;;;12.08;22.55;100037.03;5051887;28;20033;-63
2022/04/18 11:20:17;;;;;;;3.60;1.30;;;;;;;12.07;22.55;100036.19;5032782;28;20029;-64
2022/04/18 11:23:02;;;;;;;2.35;1.48;;;;;;;12.05;22.81;100030.94;5032174;28;20444;-67
2022/04/18 11:25:48;;;;;;;4.82;1.23;;;;;;;12.23;22.74;100029.53;5032044;28;20393;-62
2022/04/18 11:28:15;;;;;;;6.00;1.38;;;;;;;11.88;23.37;100021.59;5032927;28;20045;-63
2022/04/18 11:30:41;;;;;;;2.95;1.30;;;;;;;11.64;23.10;99984.22;5053158;28;20057;-62
2022/04/18 11:33:06;;;;;;;4.55;1.40;;;;;;;11.85;22.98;100032.59;5046487;28;20099;-65
2022/04/18 11:35:33;;;;;;;2.08;1.50;;;;;;;12.01;22.50;100039.38;5031588;28;20625;-63
2022/04/18 11:38:07;;;;;;;2.55;1.05;;;;;;;12.24;22.29;100032.09;5033089;28;20045;-62
2022/04/18 11:40:36;;;;;;;4.40;1.20;;;;;;;11.99;22.48;100020.72;5032652;28;20037;-63
2022/04/18 11:43:08;;;;;;;4.15;1.60;;;;;;;11.67;23.16;100023.38;5032846;28;20095;-63
2022/04/18 11:45:34;;;;;;;2.90;1.02;;;;;;;11.95;22.47;100016.59;5032870;28;20113;-62
2022/04/18 11:48:01;;;;;;;3.53;1.10;;;;;;;11.82;22.72;100019.44;5033871;28;20400;-62
2022/04/18 11:50:27;;;;;;;4.63;1.10;;;;;;;11.76;22.65;100002.00;5052116;28;20543;-64
2022/04/18 11:53:03;;;;;;;4.03;1.10;;;;;;;11.92;22.34;100012.31;5052461;28;20033;-65
2022/04/18 11:55:30;;;;;;;2.80;1.10;;;;;;;11.95;22.29;100021.94;5050956;28;20433;-64
2022/04/18 11:57:56;;;;;;;4.13;1.08;;;;;;;11.71;22.56;99993.50;5051997;28;20039;-65